Time;durP1;ratioP1;P1;durP2;ratioP2;P2;SDS_P1;SDS_P2;PMS_P1;PMS_P2;Temp;Humidity;BMP_temperature;BMP_pressure;BME280_temperature;BME280_humidity;BME280_pressure;Samples;Min_cycle;Max_cycle;Signal;HPM_P1;HPM_P2
2023/09/06 00:03:56;;;;;;;3.30;1.98;;;10.30;99.90;;;;;;20976158;28;20545;-59
2023/09/06 00:13:58;;;;;;;6.15;2.35;;;10.40;99.90;;;;;;21054173;28;20089;-57
2023/09/06 00:24:00;;;;;;;3.40;2.28;;;10.40;99.90;;;;;;21054028;28;20036;-57
2023/09/06 00:34:03;;;;;;;4.20;2.40;;;10.10;99.90;;;;;;21070242;28;20493;-57
2023/09/06 00:44:07;;;;;;;2.22;1.90;;;10.00;99.90;;;;;;21048317;28;20032;-57
2023/09/06 00:54:09;;;;;;;3.45;2.15;;;10.00;99.90;;;;;;21068874;28;20089;-57
2023/09/06 01:04:11;;;;;;;2.67;1.95;;;10.00;99.90;;;;;;21069369;28;20036;-58
2023/09/06 01:14:13;;;;;;;3.28;1.83;;;10.10;99.90;;;;;;20994727;28;20037;-59
2023/09/06 01:24:16;;;;;;;3.10;1.77;;;10.10;99.90;;;;;;21017512;28;20338;-57
2023/09/06 01:34:19;;;;;;;4.32;2.33;;;10.30;99.90;;;;;;21066395;28;20079;-59
2023/09/06 01:44:21;;;;;;;3.30;2.25;;;10.10;99.90;;;;;;21032626;28;20025;-57
2023/09/06 01:54:22;;;;;;;2.47;1.95;;;9.90;99.90;;;;;;21017335;28;20059;-57
2023/09/06 02:04:24;;;;;;;3.95;2.40;;;9.80;99.90;;;;;;21063675;28;20051;-57
2023/09/06 02:14:26;;;;;;;2.50;1.98;;;9.80;99.90;;;;;;21044501;28;20036;-57
2023/09/06 02:24:27;;;;;;;3.20;2.08;;;9.80;99.90;;;;;;21014802;28;20136;-58
2023/09/06 02:34:29;;;;;;;4.00;1.98;;;10.00;99.90;;;;;;21061184;28;20035;-57
2023/09/06 02:44:31;;;;;;;3.30;2.35;;;9.90;99.90;;;;;;21058235;28;20440;-57
2023/09/06 02:54:33;;;;;;;3.80;2.28;;;9.80;99.90;;;;;;21012942;28;20073;-57
2023/09/06 03:04:37;;;;;;;3.63;2.05;;;9.90;99.90;;;;;;21026634;28;20051;-57
2023/09/06 03:14:44;;;;;;;4.30;1.92;;;10.10;99.90;;;;;;21054377;28;20047;-57
2023/09/06 03:24:48;;;;;;;3.00;2.00;;;10.50;99.90;;;;;;21044412;28;20116;-58
2023/09/06 03:34:50;;;;;;;5.20;2.92;;;10.70;99.90;;;;;;21021148;28;20477;-57
2023/09/06 03:44:52;;;;;;;4.47;2.55;;;10.40;99.90;;;;;;21020220;28;20039;-58
2023/09/06 03:54:55;;;;;;;5.00;2.95;;;10.20;99.90;;;;;;21008352;28;20093;-57
2023/09/06 04:04:57;;;;;;;3.80;3.00;;;10.20;99.90;;;;;;21014907;28;20070;-57
2023/09/06 04:14:59;;;;;;;4.13;2.75;;;10.30;99.90;;;;;;21016996;28;20426;-57
2023/09/06 04:25:02;;;;;;;3.58;2.60;;;10.30;99.90;;;;;;20999589;28;20036;-57
2023/09/06 04:35:06;;;;;;;5.20;3.33;;;10.30;99.90;;;;;;20999515;28;20098;-57
2023/09/06 04:45:10;;;;;;;3.28;2.88;;;10.20;99.90;;;;;;20985313;28;20394;-57
2023/09/06 04:55:14;;;;;;;4.72;3.20;;;10.10;99.90;;;;;;20989856;28;20066;-57
2023/09/06 05:05:16;;;;;;;5.60;3.28;;;10.20;99.90;;;;;;21013322;28;20117;-58
2023/09/06 05:15:20;;;;;;;3.83;3.25;;;10.30;99.90;;;;;;21008283;28;20109;-56
2023/09/06 05:25:23;;;;;;;5.05;3.60;;;10.40;99.90;;;;;;20984468;28;20451;-62
2023/09/06 05:35:26;;;;;;;4.85;3.50;;;10.50;99.90;;;;;;20992129;28;20036;-61
2023/09/06 05:45:29;;;;;;;5.07;3.70;;;10.70;99.90;;;;;;21033515;28;20173;-57
2023/09/06 05:55:31;;;;;;;4.38;3.63;;;10.80;99.90;;;;;;21021182;28;20480;-57
2023/09/06 06:05:33;;;;;;;5.53;3.50;;;10.90;99.90;;;;;;21004856;28;21640;-62
2023/09/06 06:15:36;;;;;;;4.55;3.00;;;11.00;99.90;;;;;;21025324;28;20037;-62
2023/09/06 06:25:38;;;;;;;5.30;3.85;;;11.10;99.90;;;;;;21016970;28;20040;-62
2023/09/06 06:35:41;;;;;;;12.27;4.35;;;11.30;99.90;;;;;;21020043;28;20028;-62
2023/09/06 06:45:51;;;;;;;3.63;2.92;;;11.70;99.90;;;;;;21010155;28;20028;-57
2023/09/06 06:55:52;;;;;;;3.00;2.67;;;13.20;99.90;;;;;;21017002;28;20499;-54
2023/09/06 07:05:58;;;;;;;3.97;2.83;;;14.60;99.90;;;;;;21008346;28;20040;-67
2023/09/06 07:16:09;;;;;;;3.95;2.80;;;15.90;99.90;;;;;;20963989;28;20053;-57
2023/09/06 07:26:11;;;;;;;3.45;2.80;;;17.20;99.90;;;;;;21002730;28;20027;-61
2023/09/06 07:36:15;;;;;;;4.93;2.78;;;18.00;99.90;;;;;;21012338;28;20024;-62
2023/09/06 07:46:17;;;;;;;2.50;2.30;;;18.90;99.90;;;;;;21026917;28;20032;-61
2023/09/06 07:56:19;;;;;;;3.33;2.70;;;19.80;99.90;;;;;;21014259;28;20369;-58
2023/09/06 08:06:21;;;;;;;3.10;2.45;;;20.50;99.90;;;;;;21012148;28;20047;-60
2023/09/06 08:16:25;;;;;;;2.95;2.50;;;20.80;99.90;;;;;;21010258;28;20036;-60
2023/09/06 08:26:28;;;;;;;2.97;2.67;;;21.10;99.90;;;;;;21000050;28;20028;-60
2023/09/06 08:36:31;;;;;;;4.22;2.80;;;21.50;99.90;;;;;;21022419;28;20477;-60
2023/09/06 08:46:41;;;;;;;4.80;2.90;;;21.90;99.90;;;;;;20993458;28;20040;-60
2023/09/06 08:56:44;;;;;;;4.38;3.10;;;22.00;99.90;;;;;;21044349;28;20085;-60
2023/09/06 09:06:46;;;;;;;2.85;2.50;;;22.40;99.90;;;;;;21021247;28;20052;-59
2023/09/06 09:16:57;;;;;;;3.92;2.92;;;22.70;99.90;;;;;;21017704;28;20098;-58
2023/09/06 09:27:00;;;;;;;4.03;3.20;;;22.80;99.90;;;;;;21010795;28;20535;-59
2023/09/06 09:37:05;;;;;;;7.50;2.95;;;23.10;99.90;;;;;;21018720;28;20032;-59
2023/09/06 09:47:13;;;;;;;5.78;3.50;;;23.20;99.90;;;;;;21014745;28;20062;-58
2023/09/06 09:57:16;;;;;;;;;;;23.60;99.90;;;;;;21014374;28;20032;-58
2023/09/06 10:07:21;;;;;;;3.35;2.50;;;23.80;99.90;;;;;;21039581;28;19912;-58
2023/09/06 10:17:25;;;;;;;2.70;2.40;;;24.10;99.10;;;;;;21026449;28;20215;-58
2023/09/06 10:27:33;;;;;;;3.65;2.67;;;24.30;97.10;;;;;;21019819;28;20115;-58
2023/09/06 10:38:05;;;;;;;4.25;2.58;;;24.30;98.40;;;;;;21047450;28;20036;-57
2023/09/06 10:48:12;;;;;;;2.90;2.60;;;24.20;97.70;;;;;;21015523;28;20040;-57
2023/09/06 10:58:16;;;;;;;3.37;2.60;;;24.00;97.10;;;;;;21023424;28;20043;-57
2023/09/06 11:08:29;;;;;;;3.15;2.85;;;24.30;98.40;;;;;;21034173;28;20078;-57
2023/09/06 11:18:42;;;;;;;4.18;3.17;;;24.30;98.30;;;;;;20985906;28;20417;-57
2023/09/06 11:28:50;;;;;;;5.20;3.00;;;24.70;98.50;;;;;;21000949;28;20032;-57
2023/09/06 11:38:54;;;;;;;2.85;2.30;;;24.80;94.80;;;;;;21009574;28;20024;-57
2023/09/06 11:48:58;;;;;;;3.78;2.95;;;24.70;97.10;;;;;;20983049;28;20070;-58
2023/09/06 11:59:06;;;;;;;6.07;3.03;;;24.60;99.20;;;;;;21007412;28;20037;-57
2023/09/06 12:09:12;;;;;;;3.95;3.55;;;25.20;99.10;;;;;;21008388;28;20127;-57
2023/09/06 12:19:16;;;;;;;5.85;3.25;;;25.40;98.50;;;;;;21010535;28;20040;-57
2023/09/06 12:29:19;;;;;;;4.13;3.15;;;25.00;97.90;;;;;;21041142;28;20487;-58
2023/09/06 12:39:23;;;;;;;6.03;3.50;;;25.00;97.30;;;;;;21051734;28;20036;-57
2023/09/06 12:49:29;;;;;;;6.38;3.38;;;25.10;98.40;;;;;;21027230;28;20057;-58
2023/09/06 12:59:32;;;;;;;3.40;3.10;;;24.60;98.10;;;;;;21036341;28;20040;-58
2023/09/06 13:09:38;;;;;;;5.05;3.47;;;24.80;99.00;;;;;;21021582;28;20519;-59
2023/09/06 13:19:44;;;;;;;4.00;3.30;;;25.00;98.10;;;;;;20967003;28;20485;-58
2023/09/06 13:29:49;;;;;;;4.47;3.40;;;24.60;96.20;;;;;;21036532;28;20036;-59
2023/09/06 13:39:54;;;;;;;4.40;2.88;;;24.40;98.70;;;;;;21019302;28;20052;-59
2023/09/06 13:49:58;;;;;;;5.03;3.08;;;24.50;98.20;;;;;;21012618;28;20098;-58
2023/09/06 14:00:05;;;;;;;5.97;3.58;;;24.70;96.30;;;;;;21026366;28;20095;-59
2023/09/06 14:10:08;;;;;;;5.40;3.45;;;24.70;97.70;;;;;;21019409;28;20117;-59
2023/09/06 14:20:15;;;;;;;6.40;3.17;;;24.50;97.10;;;;;;21005799;28;20116;-59
2023/09/06 14:30:19;;;;;;;3.30;3.00;;;24.40;97.90;;;;;;20995535;28;20066;-59
2023/09/06 14:40:23;;;;;;;5.13;3.33;;;24.20;95.90;;;;;;21025682;28;20654;-60
2023/09/06 14:50:26;;;;;;;2.85;2.60;;;23.20;97.80;;;;;;21004726;28;20089;-60
2023/09/06 15:00:29;;;;;;;5.10;2.60;;;23.30;98.40;;;;;;20995693;28;20044;-62
2023/09/06 15:10:32;;;;;;;5.18;2.72;;;22.90;98.50;;;;;;20937737;28;20071;-63
2023/09/06 15:20:35;;;;;;;5.45;3.10;;;22.40;98.30;;;;;;20923051;28;20121;-64
2023/09/06 15:30:41;;;;;;;4.30;3.30;;;21.50;97.80;;;;;;20897709;28;20028;-56
2023/09/06 15:40:45;;;;;;;4.63;3.17;;;20.70;99.30;;;;;;20941342;28;20102;-59
2023/09/06 15:50:47;;;;;;;6.78;3.80;;;20.00;99.90;;;;;;20936218;28;20555;-56
2023/09/06 16:00:50;;;;;;;8.45;3.75;;;19.50;99.90;;;;;;20927299;28;20089;-61
2023/09/06 16:10:53;;;;;;;4.40;2.90;;;18.80;99.90;;;;;;20995579;28;20109;-61
2023/09/06 16:21:01;;;;;;;7.55;3.53;;;17.60;99.90;;;;;;21021445;28;20409;-61
2023/09/06 16:31:16;;;;;;;5.65;3.20;;;16.60;99.90;;;;;;20959443;28;20044;-59
2023/09/06 16:41:24;;;;;;;5.65;3.58;;;15.90;99.90;;;;;;21023156;28;20465;-53
2023/09/06 16:51:28;;;;;;;5.00;4.00;;;15.40;99.90;;;;;;21054505;28;20032;-59
2023/09/06 17:01:30;;;;;;;5.50;3.85;;;15.10;99.90;;;;;;21054694;28;20042;-58
2023/09/06 17:11:33;;;;;;;5.22;4.35;;;15.00;99.90;;;;;;20992448;28;20056;-59
2023/09/06 17:21:37;;;;;;;6.68;4.57;;;14.80;99.90;;;;;;20996570;28;20036;-59
2023/09/06 17:31:42;;;;;;;4.43;3.67;;;14.60;99.90;;;;;;21048396;28;20097;-59
2023/09/06 17:41:44;;;;;;;5.15;4.43;;;14.30;99.90;;;;;;21027353;28;20040;-59
2023/09/06 17:51:50;;;;;;;5.85;4.30;;;14.10;99.90;;;;;;20995614;28;20101;-59
2023/09/06 18:01:52;;;;;;;5.57;4.32;;;13.80;99.90;;;;;;20998028;28;20073;-52
2023/09/06 18:12:01;;;;;;;5.47;4.40;;;13.70;99.90;;;;;;21001864;28;20505;-59
2023/09/06 18:22:11;;;;;;;11.68;7.53;;;13.40;99.90;;;;;;20989621;28;20563;-61
2023/09/06 18:32:17;;;;;;;10.88;4.70;;;13.20;99.90;;;;;;20983175;28;20041;-58
2023/09/06 18:42:19;;;;;;;6.13;4.53;;;13.10;99.90;;;;;;21018943;28;20492;-59
2023/09/06 18:52:22;;;;;;;6.68;4.50;;;13.10;99.90;;;;;;21009725;28;20392;-60
2023/09/06 19:02:27;;;;;;;5.70;4.47;;;13.00;99.90;;;;;;21057764;28;20036;-62
2023/09/06 19:12:36;;;;;;;5.60;4.10;;;12.80;99.90;;;;;;21021242;28;20033;-61
2023/09/06 19:22:39;;;;;;;5.80;4.15;;;12.70;99.90;;;;;;21010028;28;20040;-61
2023/09/06 19:32:42;;;;;;;6.45;3.83;;;12.50;99.90;;;;;;20985038;28;20028;-58
2023/09/06 19:42:45;;;;;;;4.72;2.92;;;12.30;99.90;;;;;;21026919;28;20032;-59
2023/09/06 19:53:03;;;;;;;3.95;3.00;;;12.40;99.90;;;;;;21033640;28;20028;-59
2023/09/06 20:03:08;;;;;;;3.45;2.63;;;12.40;99.90;;;;;;21007313;28;20044;-60
2023/09/06 20:13:13;;;;;;;3.28;2.22;;;12.60;99.90;;;;;;20982255;28;20053;-60
2023/09/06 20:23:19;;;;;;;3.17;2.00;;;12.60;99.90;;;;;;21019664;28;20032;-62
2023/09/06 20:33:24;;;;;;;2.67;1.95;;;12.50;99.90;;;;;;20971621;28;20040;-63
2023/09/06 20:43:35;;;;;;;2.47;1.67;;;12.40;99.90;;;;;;21033964;28;20490;-62
2023/09/06 20:53:38;;;;;;;3.72;1.42;;;12.20;99.90;;;;;;21052396;28;20027;-63
2023/09/06 21:03:41;;;;;;;1.95;1.60;;;12.20;99.90;;;;;;21021823;28;20400;-62
2023/09/06 21:13:43;;;;;;;1.33;0.98;;;12.00;99.90;;;;;;21043335;28;20396;-61
2023/09/06 21:23:48;;;;;;;1.50;1.20;;;12.10;99.90;;;;;;20962012;28;20060;-60
2023/09/06 21:33:51;;;;;;;2.08;1.25;;;12.40;99.90;;;;;;20994374;28;20033;-60
2023/09/06 21:43:59;;;;;;;2.63;0.93;;;12.30;99.90;;;;;;21037567;28;20484;-56
2023/09/06 21:54:02;;;;;;;1.17;1.00;;;12.50;99.90;;;;;;21012642;28;20028;-56
2023/09/06 22:04:07;;;;;;;1.35;0.90;;;12.30;99.90;;;;;;21061676;28;20040;-54
2023/09/06 22:14:28;;;;;;;1.60;1.20;;;12.10;99.90;;;;;;21060834;28;20024;-57
2023/09/06 22:24:33;;;;;;;1.10;1.00;;;12.00;99.90;;;;;;21006823;28;20485;-62
2023/09/06 22:34:37;;;;;;;2.45;1.13;;;12.00;99.90;;;;;;21059827;28;20036;-56
2023/09/06 22:44:39;;;;;;;3.45;1.00;;;12.20;99.90;;;;;;21056997;28;20085;-62
2023/09/06 22:54:41;;;;;;;1.65;1.10;;;12.00;99.90;;;;;;21039518;28;20032;-56
2023/09/06 23:04:45;;;;;;;3.53;1.10;;;11.90;99.90;;;;;;21041530;28;20040;-56
2023/09/06 23:14:49;;;;;;;1.55;1.17;;;12.00;99.90;;;;;;20976039;28;20386;-62
2023/09/06 23:24:56;;;;;;;1.63;1.10;;;11.90;99.90;;;;;;21011031;28;20542;-59
2023/09/06 23:34:58;;;;;;;1.55;1.25;;;12.00;99.90;;;;;;21055247;28;20048;-56
2023/09/06 23:45:00;;;;;;;1.63;1.40;;;12.10;99.90;;;;;;21014797;28;20491;-56
2023/09/06 23:55:03;;;;;;;1.73;1.40;;;12.20;99.90;;;;;;21010669;28;20024;-55
